Time;durP1;ratioP1;P1;durP2;ratioP2;P2;SDS_P1;SDS_P2;PMS_P1;PMS_P2;Temp;Humidity;BMP_temperature;BMP_pressure;BME280_temperature;BME280_humidity;BME280_pressure;Samples;Min_cycle;Max_cycle;Signal;HPM_P1;HPM_P2
2022/09/24 00:00:26;;;;;;;7.85;7.20;;;;;;;14.37;87.18;101264.25;5040066;28;20025;-91
2022/09/24 00:02:51;;;;;;;7.63;7.03;;;;;;;14.38;87.55;101258.03;5039074;28;20041;-91
2022/09/24 00:05:17;;;;;;;8.13;7.43;;;;;;;14.38;87.46;101259.84;5038851;28;20089;-91
2022/09/24 00:07:42;;;;;;;8.23;6.95;;;;;;;14.38;87.55;101265.94;5038942;28;20025;-91
2022/09/24 00:10:08;;;;;;;7.70;7.10;;;;;;;14.37;87.63;101256.38;5057022;28;20271;-91
2022/09/24 00:12:33;;;;;;;7.57;6.88;;;;;;;14.36;87.30;101254.63;5055094;28;20071;-91
2022/09/24 00:14:59;;;;;;;8.25;7.45;;;;;;;14.35;87.57;101246.81;5027712;28;20033;-91
2022/09/24 00:17:24;;;;;;;7.22;6.63;;;;;;;14.35;87.42;101252.97;5018853;28;20090;-91
2022/09/24 00:19:49;;;;;;;7.85;7.25;;;;;;;14.33;87.45;101249.50;5019629;28;20033;-91
2022/09/24 00:22:15;;;;;;;6.97;6.47;;;;;;;14.35;87.33;101250.31;5018958;28;20375;-91
2022/09/24 00:27:26;;;;;;;8.82;8.13;;;;;;;14.33;87.49;101249.50;5056438;28;20044;-91
2022/09/24 00:29:51;;;;;;;7.63;7.00;;;;;;;14.34;87.65;101247.75;5055535;28;20087;-91
2022/09/24 00:32:17;;;;;;;8.07;7.38;;;;;;;14.33;87.84;101246.88;5054986;28;20057;-91
2022/09/24 00:34:42;;;;;;;7.93;7.32;;;;;;;14.33;87.86;101243.41;5056696;28;20320;-91
2022/09/24 00:37:08;;;;;;;8.27;7.20;;;;;;;14.32;87.67;101245.19;5055417;28;20040;-91
2022/09/24 00:39:33;;;;;;;7.68;6.93;;;;;;;14.31;87.70;101243.47;5056165;28;20317;-91
2022/09/24 00:41:59;;;;;;;7.90;7.20;;;;;;;14.29;87.79;101240.06;5059323;28;20040;-91
2022/09/24 00:44:39;;;;;;;8.48;7.65;;;;;;;14.30;87.79;101244.41;5042424;28;20103;-91
2022/09/24 00:47:10;;;;;;;10.00;6.75;;;;;;;14.31;87.79;101243.47;5059252;28;20029;-91
2022/09/24 00:49:36;;;;;;;7.28;6.68;;;;;;;14.30;88.04;101248.84;5058818;28;20017;-91
2022/09/24 00:52:01;;;;;;;7.80;7.00;;;;;;;14.31;87.95;101240.00;5058855;28;20025;-91
2022/09/24 00:54:27;;;;;;;8.15;7.45;;;;;;;14.29;87.90;101234.78;5058707;28;20045;-91
2022/09/24 00:56:56;;;;;;;8.80;7.90;;;;;;;14.28;87.92;101234.88;5042214;28;20040;-91
2022/09/24 00:59:23;;;;;;;7.63;6.93;;;;;;;14.28;87.93;101233.13;5059867;28;20025;-91
2022/09/24 01:01:52;;;;;;;8.32;7.63;;;;;;;14.29;87.70;101236.59;5058929;28;20100;-91
2022/09/24 01:04:21;;;;;;;;;;;;;;;14.27;87.86;101231.38;5059030;28;20086;-91
2022/09/24 01:06:49;;;;;;;7.90;7.22;;;;;;;14.26;87.76;101220.94;5059933;28;19905;-91
2022/09/24 01:09:20;;;;;;;8.30;7.53;;;;;;;14.27;87.69;101227.91;5058697;28;20029;-91
2022/09/24 01:12:17;;;;;;;8.75;7.95;;;;;;;14.26;87.74;101221.81;5058643;28;20312;-91
2022/09/24 01:14:51;;;;;;;11.45;7.80;;;;;;;14.26;88.10;101223.56;5058773;28;20017;-91
2022/09/24 01:17:23;;;;;;;9.32;8.48;;;;;;;14.25;88.07;101217.44;5059664;28;20032;-91
2022/09/24 01:20:18;;;;;;;7.78;7.07;;;;;;;14.25;88.15;101221.88;5070601;28;20112;-90
2022/09/24 01:23:36;;;;;;;8.68;7.88;;;;;;;14.24;88.04;101215.72;5075258;28;20244;-91
2022/09/24 01:26:18;;;;;;;8.35;7.65;;;;;;;14.23;87.83;101216.69;5035041;28;20060;-91
2022/09/24 01:28:49;;;;;;;8.80;8.00;;;;;;;14.23;88.13;101216.69;5042330;28;20028;-91
2022/09/24 01:31:21;;;;;;;7.95;7.25;;;;;;;14.23;88.09;101214.03;5058216;28;20317;-91
2022/09/24 01:33:52;;;;;;;7.13;6.50;;;;;;;14.22;88.10;101199.16;5076512;28;20066;-91
2022/09/24 01:36:20;;;;;;;7.45;6.85;;;;;;;14.22;87.90;101204.41;5079498;28;20020;-90
2022/09/24 01:38:49;;;;;;;8.85;8.05;;;;;;;14.22;87.83;101207.06;5061814;28;20025;-91
2022/09/24 01:41:16;;;;;;;7.72;7.03;;;;;;;14.21;88.10;101193.03;5079318;28;20315;-91
2022/09/24 01:43:42;;;;;;;8.50;7.72;;;;;;;14.20;88.20;101201.84;5061007;28;20051;-91
2022/09/24 01:46:09;;;;;;;8.45;7.65;;;;;;;14.19;88.22;101187.00;5064790;28;20021;-91
2022/09/24 01:48:39;;;;;;;10.70;8.13;;;;;;;14.19;88.10;101184.38;5044154;28;20247;-91
2022/09/24 01:51:15;;;;;;;8.73;7.93;;;;;;;14.19;88.10;101184.38;5061583;28;20220;-91
2022/09/24 01:53:47;;;;;;;7.93;7.22;;;;;;;14.18;88.15;101185.28;5061270;28;20027;-91
2022/09/24 01:56:19;;;;;;;8.20;7.40;;;;;;;14.17;87.81;101175.69;5061202;28;20031;-91
2022/09/24 01:58:57;;;;;;;9.18;8.27;;;;;;;14.19;87.86;101178.25;5060908;28;20105;-91
2022/09/24 02:01:32;;;;;;;8.82;8.00;;;;;;;14.17;88.18;101174.81;5060845;28;20055;-91
2022/09/24 02:04:05;;;;;;;8.93;8.13;;;;;;;14.18;88.21;101172.13;5078933;28;20394;-90
2022/09/24 02:06:35;;;;;;;9.82;7.95;;;;;;;14.18;88.22;101168.63;5060912;28;20028;-89
2022/09/24 02:09:00;;;;;;;8.68;7.88;;;;;;;14.18;87.95;101171.28;5079158;28;20020;-89
2022/09/24 02:11:27;;;;;;;10.90;8.95;;;;;;;14.17;87.98;101167.78;5043278;28;20016;-89
2022/09/24 02:13:59;;;;;;;10.55;9.48;;;;;;;14.18;88.20;101163.38;5060524;28;20019;-89
2022/09/24 02:16:51;;;;;;;10.43;9.43;;;;;;;14.17;88.04;101162.53;5078516;28;20095;-89
2022/09/24 02:19:25;;;;;;;10.07;9.18;;;;;;;14.16;87.99;101162.59;5056553;28;20323;-89
2022/09/24 02:21:54;;;;;;;11.82;10.68;;;;;;;14.17;88.35;101156.38;5077960;28;20217;-89
2022/09/24 02:24:38;;;;;;;11.15;9.95;;;;;;;14.16;88.16;101154.69;5060711;28;20274;-88
2022/09/24 02:27:07;;;;;;;10.93;9.82;;;;;;;14.15;88.23;101150.34;5061426;28;20036;-89
2022/09/24 02:29:37;;;;;;;10.82;9.82;;;;;;;14.15;88.34;101156.50;5059676;28;20299;-89
2022/09/24 02:38:04;;;;;;;11.00;9.98;;;;;;;14.13;88.45;101146.94;5058439;28;20078;-89
2022/09/24 02:40:36;;;;;;;11.65;10.45;;;;;;;14.11;88.53;101144.38;5039636;28;20040;-89
2022/09/24 02:43:10;;;;;;;10.75;9.75;;;;;;;14.11;88.50;101144.38;5057597;28;20072;-88
2022/09/24 02:46:00;;;;;;;11.52;10.40;;;;;;;14.12;88.49;101156.63;5063313;28;20108;-89
2022/09/24 02:48:50;;;;;;;12.52;11.05;;;;;;;14.12;88.59;101153.16;5041003;28;20048;-88
2022/09/24 02:51:32;;;;;;;11.80;10.55;;;;;;;14.10;88.56;101149.72;5057713;28;20052;-89
2022/09/24 02:54:15;;;;;;;15.45;10.10;;;;;;;14.10;88.83;101154.97;5049308;28;20044;-88
2022/09/24 02:57:13;;;;;;;11.23;10.13;;;;;;;14.08;88.51;101147.19;5057698;28;20324;-89
2022/09/24 03:00:11;;;;;;;10.43;9.15;;;;;;;14.09;88.51;101153.31;5057746;28;20029;-89
2022/09/24 03:02:53;;;;;;;10.57;9.57;;;;;;;14.07;88.65;101145.47;5056542;28;20041;-89
2022/09/24 03:05:27;;;;;;;10.50;9.50;;;;;;;14.08;88.55;101149.81;5056047;28;20108;-89
2022/09/24 03:08:03;;;;;;;10.38;9.30;;;;;;;14.08;88.43;101148.94;5057304;28;20040;-89
2022/09/24 03:11:00;;;;;;;11.80;9.63;;;;;;;14.07;88.77;101140.22;5072694;28;20401;-89
2022/09/24 03:13:35;;;;;;;12.02;9.35;;;;;;;14.05;88.37;101142.06;5061678;28;20208;-89
2022/09/24 03:16:26;;;;;;;12.18;9.20;;;;;;;14.07;88.42;101142.00;5076934;28;20040;-89
2022/09/24 03:19:04;;;;;;;10.45;9.45;;;;;;;14.05;88.34;101142.06;5076418;28;20243;-89
2022/09/24 03:21:42;;;;;;;10.05;9.05;;;;;;;14.05;88.66;101142.06;5077014;28;20036;-89
2022/09/24 03:24:29;;;;;;;11.25;9.07;;;;;;;14.04;88.51;101137.72;5075609;28;20255;-89
2022/09/24 03:27:16;;;;;;;10.60;9.55;;;;;;;14.04;88.56;101140.34;5076405;28;20036;-89
2022/09/24 03:32:46;;;;;;;10.30;9.20;;;;;;;14.05;88.39;101138.59;5076233;28;20097;-88
2022/09/24 03:35:26;;;;;;;9.75;8.75;;;;;;;14.04;88.88;101135.09;5073623;28;20032;-89
2022/09/24 03:38:19;;;;;;;10.00;9.02;;;;;;;14.04;88.91;101135.09;5043883;28;20067;-89
2022/09/24 03:40:54;;;;;;;10.88;9.73;;;;;;;14.01;88.91;101130.84;5073268;28;20243;-89
2022/09/24 03:43:32;;;;;;;10.40;9.30;;;;;;;14.03;88.49;101136.03;5059569;28;20372;-89
2022/09/24 03:46:27;;;;;;;10.50;9.40;;;;;;;14.04;88.67;101139.50;5076721;28;20078;-89
2022/09/24 03:48:58;;;;;;;10.80;9.70;;;;;;;14.02;88.61;101136.94;5051606;28;20016;-89
2022/09/24 03:51:46;;;;;;;10.98;9.90;;;;;;;14.04;88.74;101142.97;5039714;28;20059;-89
2022/09/24 03:54:16;;;;;;;10.77;9.60;;;;;;;14.04;88.85;101142.13;5055883;28;20190;-89
2022/09/24 03:56:50;;;;;;;10.63;9.38;;;;;;;14.02;88.86;101137.81;5056499;28;20037;-88
2022/09/24 03:59:46;;;;;;;10.63;9.52;;;;;;;14.03;88.69;101138.66;5056271;28;20089;-89
2022/09/24 04:02:35;;;;;;;10.32;9.32;;;;;;;14.01;88.79;101136.09;5038382;28;20037;-88
2022/09/24 04:05:29;;;;;;;11.45;9.52;;;;;;;14.01;88.91;101141.38;5056883;28;20041;-89
2022/09/24 04:08:03;;;;;;;11.40;10.15;;;;;;;14.01;88.73;101135.25;5056428;28;20334;-89
2022/09/24 04:10:56;;;;;;;12.70;9.93;;;;;;;14.02;88.59;101132.56;5042075;28;20037;-88
2022/09/24 04:13:33;;;;;;;10.80;9.70;;;;;;;14.00;88.75;101134.38;5052995;28;20075;-89
2022/09/24 04:16:10;;;;;;;12.15;10.23;;;;;;;14.00;88.60;101126.50;5059143;28;20040;-89
2022/09/24 04:18:51;;;;;;;12.02;10.57;;;;;;;14.01;88.95;101132.63;5045045;28;20033;-89
2022/09/24 04:21:29;;;;;;;12.25;10.50;;;;;;;14.01;89.03;101128.19;5057825;28;20048;-88
2022/09/24 04:24:00;;;;;;;15.15;11.32;;;;;;;14.01;89.13;101124.72;5042879;28;20040;-89
2022/09/24 04:27:14;;;;;;;12.57;11.27;;;;;;;13.98;88.82;101123.09;5034343;28;20064;-89
2022/09/24 04:30:02;;;;;;;12.63;11.32;;;;;;;14.01;89.13;101124.72;5058063;28;20032;-89
2022/09/24 04:33:01;;;;;;;15.52;12.05;;;;;;;14.00;89.12;101126.50;5078006;28;20077;-89
2022/09/24 04:35:34;;;;;;;14.73;11.65;;;;;;;13.99;89.04;101126.59;5063268;28;20076;-89
2022/09/24 04:38:07;;;;;;;13.00;11.55;;;;;;;14.00;88.91;101130.91;5062478;28;20024;-89
2022/09/24 04:40:40;;;;;;;13.40;11.98;;;;;;;13.99;89.22;101127.44;5080066;28;20024;-88
2022/09/24 04:43:50;;;;;;;12.93;11.45;;;;;;;14.00;88.91;101133.53;5079871;28;20032;-89
2022/09/24 04:46:45;;;;;;;13.85;11.73;;;;;;;13.98;89.19;101124.88;5079483;28;20491;-89
2022/09/24 04:49:23;;;;;;;15.52;12.82;;;;;;;13.99;89.16;101132.69;5077367;28;20040;-89
2022/09/24 04:52:15;;;;;;;16.08;13.25;;;;;;;13.98;88.94;101138.88;5079981;28;20285;-88
2022/09/24 04:54:58;;;;;;;15.25;12.38;;;;;;;13.99;88.94;101143.22;5079296;28;20096;-88
2022/09/24 04:57:51;;;;;;;18.52;13.68;;;;;;;14.00;89.07;101147.56;5064924;28;20029;-89
2022/09/24 05:00:24;;;;;;;16.85;13.75;;;;;;;13.98;88.92;101140.66;5059695;28;20063;-88
2022/09/24 05:03:02;;;;;;;16.98;13.50;;;;;;;13.98;88.72;101144.16;5057976;28;20226;-89
2022/09/24 05:06:00;;;;;;;15.38;12.10;;;;;;;13.99;88.58;101140.59;5059490;28;20231;-89
2022/09/24 05:08:28;;;;;;;16.80;13.05;;;;;;;13.99;88.54;101139.75;5054387;28;20029;-89
2022/09/24 05:11:19;;;;;;;14.77;11.90;;;;;;;13.99;88.47;101142.38;5057185;28;20037;-88
2022/09/24 05:13:53;;;;;;;17.02;13.63;;;;;;;13.99;88.82;101145.03;5057514;28;20258;-89
2022/09/24 05:16:57;;;;;;;20.05;14.27;;;;;;;13.97;88.49;101142.47;5059043;28;20036;-89
2022/09/24 05:19:37;;;;;;;18.05;14.25;;;;;;;13.99;88.61;101145.03;5057034;28;20045;-89
2022/09/24 05:22:19;;;;;;;19.25;13.20;;;;;;;13.98;88.75;101144.16;5059090;28;20029;-89
2022/09/24 05:25:00;;;;;;;18.42;13.50;;;;;;;13.99;88.46;101145.88;5049617;28;20349;-89
2022/09/24 05:27:47;;;;;;;18.40;12.60;;;;;;;13.99;88.65;101139.75;5058141;28;20106;-88
2022/09/24 05:30:25;;;;;;;15.10;11.73;;;;;;;13.98;88.70;101138.03;5059243;28;20028;-88
2022/09/24 05:33:00;;;;;;;14.02;11.15;;;;;;;13.99;88.75;101147.66;5041802;28;20017;-89
2022/09/24 05:36:03;;;;;;;12.40;11.10;;;;;;;13.98;88.88;101149.41;5076122;28;20044;-88
2022/09/24 05:38:37;;;;;;;11.60;10.05;;;;;;;13.98;88.51;101144.16;5060258;28;20029;-89
2022/09/24 05:41:14;;;;;;;11.32;9.93;;;;;;;13.99;88.83;101153.75;5079029;28;20277;-89
2022/09/24 05:43:58;;;;;;;10.85;9.70;;;;;;;13.98;88.88;101151.19;5078503;28;20062;-89
2022/09/24 05:46:34;;;;;;;11.77;9.93;;;;;;;13.98;89.14;101152.03;5076232;28;20051;-88
2022/09/24 05:49:03;;;;;;;12.63;10.75;;;;;;;13.98;89.88;101152.03;5061313;28;20028;-88
2022/09/24 05:51:35;;;;;;;13.27;10.80;;;;;;;13.97;89.84;101158.25;5077073;28;20040;-89
2022/09/24 05:54:10;;;;;;;17.83;12.80;;;;;;;13.97;91.70;101155.63;5078348;28;20033;-89
2022/09/24 05:57:06;;;;;;;15.15;10.85;;;;;;;13.94;91.92;101161.03;5078227;28;20039;-89
2022/09/24 05:59:44;;;;;;;14.07;10.55;;;;;;;13.91;91.84;101166.44;5076383;28;20099;-89
2022/09/24 06:02:35;;;;;;;14.73;9.87;;;;;;;13.92;92.31;101167.31;5073544;28;20094;-89
2022/09/24 06:05:08;;;;;;;10.30;9.20;;;;;;;13.90;92.14;101164.75;5077851;28;20358;-89
2022/09/24 06:07:48;;;;;;;9.10;8.10;;;;;;;13.88;92.19;101166.63;5078548;28;20052;-88
2022/09/24 06:10:40;;;;;;;8.27;7.50;;;;;;;13.88;92.43;101174.50;5069171;28;20235;-89
2022/09/24 06:13:22;;;;;;;9.65;7.40;;;;;;;13.86;92.41;101173.75;5078004;28;20039;-89
2022/09/24 06:16:04;;;;;;;6.97;6.28;;;;;;;13.86;92.19;101181.63;5056358;28;20294;-89
2022/09/24 06:18:57;;;;;;;10.38;4.70;;;;;;;13.87;92.22;101187.75;5058123;28;20032;-88
2022/09/24 06:21:27;;;;;;;4.45;3.83;;;;;;;13.85;92.58;101194.88;5058287;28;20404;-89
2022/09/24 06:24:02;;;;;;;3.88;3.03;;;;;;;13.85;92.44;101187.81;5060144;28;20115;-89
2022/09/24 06:26:43;;;;;;;4.57;2.80;;;;;;;13.84;92.49;101191.38;5028552;28;20335;-89
2022/09/24 06:29:32;;;;;;;3.47;1.90;;;;;;;13.81;92.79;101191.53;5078073;28;20056;-89
2022/09/24 06:32:19;;;;;;;;;;;;;;;13.81;92.63;101194.16;5078749;28;20059;-89
2022/09/24 06:35:19;;;;;;;4.45;2.00;;;;;;;13.79;92.38;101196.03;5078336;28;19912;-89
2022/09/24 06:37:48;;;;;;;3.78;1.65;;;;;;;13.79;92.63;101196.03;5059097;28;20260;-89
2022/09/24 06:40:26;;;;;;;;;;;;;;;13.80;92.48;101201.19;5055217;28;20040;-89
2022/09/24 06:43:17;;;;;;;2.63;1.60;;;;;;;13.78;92.58;101195.16;5078158;28;19916;-89
2022/09/24 06:45:45;;;;;;;3.58;1.50;;;;;;;13.80;92.75;101197.72;5060431;28;20063;-89
2022/09/24 06:48:21;;;;;;;2.28;1.63;;;;;;;13.78;92.82;101197.78;5063537;28;20351;-89
2022/09/24 06:50:51;;;;;;;2.35;1.60;;;;;;;13.79;92.54;101196.88;5035522;28;20039;-89
2022/09/24 06:53:25;;;;;;;2.67;1.40;;;;;;;13.81;92.54;101204.69;5055775;28;20036;-89
2022/09/24 06:56:31;;;;;;;3.55;2.20;;;;;;;13.82;92.73;101204.63;5042807;28;20283;-89
2022/09/24 06:59:29;;;;;;;4.47;1.83;;;;;;;13.82;92.54;101206.38;5057111;28;20059;-89
2022/09/24 07:02:11;;;;;;;3.47;2.10;;;;;;;13.84;92.47;101212.41;5044261;28;20418;-89
2022/09/24 07:05:02;;;;;;;3.80;1.90;;;;;;;13.85;92.89;101218.56;5060355;28;20079;-88
2022/09/24 07:07:42;;;;;;;4.03;1.88;;;;;;;13.85;93.02;101213.31;5092191;28;20216;-89
2022/09/24 07:10:24;;;;;;;7.68;1.80;;;;;;;13.86;93.11;101217.63;5091794;28;20028;-89
2022/09/24 07:13:02;;;;;;;5.28;2.00;;;;;;;13.86;93.33;101215.88;5073923;28;20029;-89
2022/09/24 07:15:33;;;;;;;1.75;1.52;;;;;;;13.86;93.06;101222.88;5074102;28;20088;-89
2022/09/24 07:18:23;;;;;;;4.45;1.88;;;;;;;13.86;93.87;101226.41;5091095;28;20062;-88
2022/09/24 07:21:06;;;;;;;4.30;2.03;;;;;;;13.83;93.78;101229.16;5078280;28;20060;-88
2022/09/24 07:24:02;;;;;;;3.97;1.92;;;;;;;13.84;93.66;101230.84;5069544;28;20044;-89
2022/09/24 07:27:22;;;;;;;5.22;2.10;;;;;;;13.83;94.08;101234.44;5071851;28;20059;-89
2022/09/24 07:29:58;;;;;;;7.97;1.83;;;;;;;13.82;94.18;101237.97;5061837;28;20037;-89
2022/09/24 07:32:53;;;;;;;4.28;1.70;;;;;;;13.81;94.20;101236.28;5050313;28;20080;-89
2022/09/24 07:35:31;;;;;;;8.85;2.08;;;;;;;13.77;94.01;101235.56;5057024;28;20044;-89
2022/09/24 07:38:15;;;;;;;4.87;1.70;;;;;;;13.77;94.33;101242.59;5049811;28;20037;-89
2022/09/24 07:40:47;;;;;;;5.75;1.55;;;;;;;13.73;94.42;101244.53;5089279;28;20029;-89
2022/09/24 07:43:32;;;;;;;8.40;1.75;;;;;;;13.72;94.62;101256.00;5090555;28;20032;-89
2022/09/24 07:45:59;;;;;;;6.35;1.63;;;;;;;13.68;94.74;101246.53;5084707;28;20036;-89
2022/09/24 07:48:30;;;;;;;6.70;1.47;;;;;;;13.68;94.48;101253.56;5060018;28;20040;-89
2022/09/24 07:51:01;;;;;;;9.48;1.52;;;;;;;13.68;94.67;101250.94;5076498;28;20032;-89
2022/09/24 07:53:32;;;;;;;11.93;2.35;;;;;;;13.67;94.64;101254.50;5076485;28;20086;-89
2022/09/24 07:56:06;;;;;;;7.43;1.98;;;;;;;13.66;94.63;101260.69;5060503;28;20044;-88
2022/09/24 07:58:34;;;;;;;6.55;1.65;;;;;;;13.66;94.88;101261.56;5072026;28;20037;-89
2022/09/24 08:01:02;;;;;;;4.28;1.30;;;;;;;13.65;94.70;101259.84;5043554;28;20063;-89
2022/09/24 08:03:30;;;;;;;5.38;1.38;;;;;;;13.65;94.82;101264.25;5042198;28;20034;-89
2022/09/24 08:06:03;;;;;;;5.20;1.60;;;;;;;13.62;94.68;101263.47;5060822;28;20088;-89
2022/09/24 08:08:35;;;;;;;6.68;1.20;;;;;;;13.60;94.48;101264.47;5059439;28;20036;-89
2022/09/24 08:11:04;;;;;;;7.07;1.85;;;;;;;13.61;94.90;101272.28;5058996;28;20033;-89
2022/09/24 08:13:34;;;;;;;5.43;1.63;;;;;;;13.61;94.58;101267.03;5057883;28;20071;-89
2022/09/24 08:16:02;;;;;;;;;;;;;;;13.61;94.61;101272.28;5056808;28;20036;-88
2022/09/24 08:18:33;;;;;;;9.48;1.83;;;;;;;13.60;94.37;101278.47;5076531;28;20421;-89
2022/09/24 08:21:14;;;;;;;7.72;1.58;;;;;;;13.62;94.21;101286.28;5076333;28;20299;-88
2022/09/24 08:23:44;;;;;;;4.95;1.23;;;;;;;13.61;94.51;101282.81;5042462;28;20107;-89
2022/09/24 08:26:13;;;;;;;9.38;1.92;;;;;;;13.61;94.19;101287.22;5076799;28;20035;-88
2022/09/24 08:28:59;;;;;;;;;;;;;;;13.61;94.34;101287.22;5076832;28;20032;-89
2022/09/24 08:31:32;;;;;;;4.00;1.27;;;;;;;13.62;94.32;101289.81;5057774;28;19922;-88
2022/09/24 08:34:02;;;;;;;5.50;1.92;;;;;;;13.63;94.60;101296.75;5058253;28;20082;-89
2022/09/24 08:36:36;;;;;;;5.50;1.42;;;;;;;13.65;94.53;101295.84;5057434;28;20060;-88
2022/09/24 08:39:07;;;;;;;12.27;2.28;;;;;;;13.66;94.35;101298.41;5076162;28;20326;-89
2022/09/24 08:41:55;;;;;;;7.57;1.90;;;;;;;13.68;94.00;101311.47;5043097;28;20036;-89
2022/09/24 08:47:53;;;;;;;3.47;1.27;;;;;;;13.69;93.89;101311.41;5076037;28;20086;-89
2022/09/24 08:50:26;;;;;;;6.80;2.00;;;;;;;13.70;94.05;101310.50;5057878;28;20031;-89
2022/09/24 08:53:20;;;;;;;13.80;2.60;;;;;;;13.71;93.62;101316.59;5075643;28;20024;-89
2022/09/24 08:55:51;;;;;;;7.85;1.45;;;;;;;13.71;93.67;101319.22;5075978;28;20041;-89
2022/09/24 08:58:55;;;;;;;8.68;1.73;;;;;;;13.71;93.31;101314.81;5075126;28;20043;-88
2022/09/24 09:01:36;;;;;;;4.65;1.50;;;;;;;13.72;93.37;101320.97;5077197;28;20052;-88
2022/09/24 09:04:54;;;;;;;7.40;1.58;;;;;;;13.72;92.99;101320.97;5077953;28;20036;-89
2022/09/24 09:08:00;;;;;;;7.10;1.50;;;;;;;13.73;92.51;101326.13;5079100;28;20330;-88
2022/09/24 09:10:53;;;;;;;7.03;1.58;;;;;;;13.71;92.35;101324.50;5061840;28;20024;-89
2022/09/24 09:13:29;;;;;;;10.70;1.70;;;;;;;13.71;92.46;101324.50;5074454;28;20278;-88
2022/09/24 09:16:29;;;;;;;4.45;1.15;;;;;;;13.73;92.57;101333.19;5064004;28;20276;-89
2022/09/24 09:19:07;;;;;;;10.40;1.75;;;;;;;13.70;91.95;101328.03;5079065;28;20040;-88
2022/09/24 09:21:57;;;;;;;5.40;1.35;;;;;;;13.70;91.73;101328.91;5078786;28;20081;-89
2022/09/24 09:25:08;;;;;;;6.40;1.63;;;;;;;13.70;91.25;101335.94;5079268;28;20040;-88
2022/09/24 09:28:03;;;;;;;4.53;1.23;;;;;;;13.70;91.14;101330.66;5078870;28;20081;-88
2022/09/24 09:30:46;;;;;;;4.72;1.40;;;;;;;13.69;90.55;101342.16;5078788;28;20044;-88
2022/09/24 09:34:00;;;;;;;6.95;1.30;;;;;;;13.69;90.11;101336.88;5076400;28;20024;-89
2022/09/24 09:37:11;;;;;;;8.13;1.50;;;;;;;13.68;90.17;101337.78;5062647;28;20048;-88
2022/09/24 09:40:12;;;;;;;5.07;1.10;;;;;;;13.69;89.90;101342.16;5057554;28;20340;-88
2022/09/24 09:43:01;;;;;;;4.35;1.02;;;;;;;13.67;89.26;101339.56;5078810;28;20040;-88
2022/09/24 09:45:42;;;;;;;;;;;;;;;13.67;89.72;101347.47;5076107;28;20039;-88
2022/09/24 09:48:25;;;;;;;4.47;1.25;;;;;;;13.66;89.77;101353.69;5078335;28;19947;-89
2022/09/24 09:51:04;;;;;;;8.90;1.15;;;;;;;13.66;89.39;101352.81;5078800;28;20040;-89
2022/09/24 09:53:54;;;;;;;2.60;1.27;;;;;;;13.66;89.68;101352.81;5076250;28;20048;-89
2022/09/24 09:56:35;;;;;;;8.30;1.40;;;;;;;13.67;89.32;101357.16;5078733;28;20311;-89
2022/09/24 09:59:21;;;;;;;10.63;1.65;;;;;;;13.65;89.15;101357.22;5075683;28;20103;-89
2022/09/24 10:02:34;;;;;;;7.10;1.23;;;;;;;13.66;89.38;101345.78;5078658;28;20048;-89
2022/09/24 10:05:06;;;;;;;5.68;1.15;;;;;;;13.67;89.17;101363.25;5076132;28;20040;-89
2022/09/24 10:07:47;;;;;;;6.93;1.73;;;;;;;13.68;88.99;101351.81;5077443;28;20047;-89
2022/09/24 10:10:23;;;;;;;6.03;1.33;;;;;;;13.67;88.98;101350.09;5076245;28;20034;-89
2022/09/24 10:12:53;;;;;;;7.80;1.92;;;;;;;13.67;88.85;101352.72;5059092;28;20232;-89
2022/09/24 10:15:23;;;;;;;3.92;1.13;;;;;;;13.68;88.85;101356.22;5060325;28;20031;-88
2022/09/24 10:17:54;;;;;;;6.93;1.50;;;;;;;13.67;88.14;101365.91;5060296;28;20274;-89
2022/09/24 10:20:28;;;;;;;6.25;1.20;;;;;;;13.68;88.21;101357.09;5078213;28;20017;-89
2022/09/24 10:23:01;;;;;;;7.82;1.45;;;;;;;13.70;88.24;101364.88;5078217;28;20113;-89
2022/09/24 10:25:39;;;;;;;3.38;0.88;;;;;;;13.70;88.31;101352.59;5077129;28;20036;-89
2022/09/24 10:31:11;;;;;;;11.02;1.40;;;;;;;13.69;87.20;101353.50;5078548;28;20264;-89
2022/09/24 10:33:49;;;;;;;5.03;1.02;;;;;;;13.68;86.65;101361.47;5061446;28;20332;-88
2022/09/24 10:36:28;;;;;;;6.35;1.27;;;;;;;13.67;87.15;101360.63;5076893;28;20032;-88
2022/09/24 10:39:06;;;;;;;10.63;1.40;;;;;;;13.69;86.72;101365.81;5062473;28;20143;-89
2022/09/24 10:41:38;;;;;;;5.95;1.20;;;;;;;13.69;86.44;101368.47;5078068;28;20040;-88
2022/09/24 10:44:12;;;;;;;7.45;1.25;;;;;;;13.69;87.15;101365.81;5077960;28;20088;-88
2022/09/24 10:46:53;;;;;;;7.18;1.20;;;;;;;13.69;87.36;101368.47;5077966;28;20036;-88
2022/09/24 10:49:56;;;;;;;4.75;1.23;;;;;;;13.71;87.15;101372.72;5078081;28;20029;-89
2022/09/24 10:52:51;;;;;;;9.18;2.00;;;;;;;13.72;87.07;101376.22;5077600;28;20350;-88
2022/09/24 10:55:54;;;;;;;10.13;1.98;;;;;;;13.71;87.55;101364.81;5077784;28;20347;-88
2022/09/24 10:58:44;;;;;;;6.82;1.30;;;;;;;13.73;87.44;101370.03;5059408;28;20028;-88
2022/09/24 11:01:25;;;;;;;4.88;1.63;;;;;;;13.74;86.98;101375.22;5076960;28;20068;-89
2022/09/24 11:04:24;;;;;;;5.28;1.35;;;;;;;13.76;86.80;101368.09;5076680;28;20040;-89
2022/09/24 11:07:24;;;;;;;12.40;1.83;;;;;;;13.78;86.98;101373.31;5075776;28;20159;-88
2022/09/24 11:10:07;;;;;;;7.72;1.02;;;;;;;13.79;87.13;101377.66;5059782;28;20048;-89
2022/09/24 11:13:27;;;;;;;5.55;1.45;;;;;;;13.81;86.37;101383.72;5076788;28;20294;-89
2022/09/24 11:16:22;;;;;;;4.95;1.00;;;;;;;13.81;85.59;101378.44;5014960;28;20064;-88
2022/09/24 11:19:00;;;;;;;6.18;1.25;;;;;;;13.81;85.49;101384.56;4956311;29;20046;-88
2022/09/24 11:21:52;;;;;;;8.55;1.00;;;;;;;13.82;85.94;101385.41;4956723;29;20046;-88
2022/09/24 11:24:50;;;;;;;6.97;1.75;;;;;;;13.82;85.97;101383.63;4990892;28;20064;-89
2022/09/24 11:27:39;;;;;;;;;;;;;;;13.83;86.68;101390.59;5012690;28;20380;-89
2022/09/24 11:30:33;;;;;;;4.35;1.13;;;;;;;13.84;86.82;101383.53;5012251;28;19959;-88
2022/09/24 11:33:06;;;;;;;5.97;1.17;;;;;;;13.85;87.29;101380.00;4998485;28;20211;-88
2022/09/24 11:35:59;;;;;;;4.45;0.90;;;;;;;13.88;86.85;101373.72;5014792;28;20210;-89
2022/09/24 11:38:48;;;;;;;4.70;1.08;;;;;;;13.87;86.58;101391.31;5008187;28;20128;-89
2022/09/24 11:41:29;;;;;;;3.80;0.90;;;;;;;13.90;87.15;101400.84;5013649;28;20041;-89
2022/09/24 11:44:35;;;;;;;10.38;1.83;;;;;;;13.91;87.07;101389.41;5014757;28;20042;-89
2022/09/24 11:47:10;;;;;;;8.30;1.30;;;;;;;13.92;87.04;101394.59;4998338;28;20088;-89
2022/09/24 11:49:49;;;;;;;7.00;1.20;;;;;;;13.95;88.37;101394.47;5038851;28;20097;-88
2022/09/24 11:52:44;;;;;;;8.35;1.40;;;;;;;13.96;89.64;101392.69;5075320;28;20039;-88
2022/09/24 11:55:35;;;;;;;3.38;1.08;;;;;;;13.96;89.18;101395.31;5075415;28;20099;-89
2022/09/24 11:58:07;;;;;;;9.65;1.90;;;;;;;13.96;89.62;101396.16;5071899;28;20067;-89
2022/09/24 12:00:42;;;;;;;6.35;1.50;;;;;;;13.98;90.36;101404.00;5075150;28;20062;-88
2022/09/24 12:03:21;;;;;;;7.05;1.40;;;;;;;13.97;90.83;101397.88;5055598;28;20066;-89
2022/09/24 12:06:12;;;;;;;3.25;1.45;;;;;;;14.00;90.40;101404.78;5056284;28;20044;-89
2022/09/24 12:09:05;;;;;;;6.45;1.58;;;;;;;14.00;90.70;101400.34;5056459;28;20340;-88
2022/09/24 12:11:49;;;;;;;7.20;2.28;;;;;;;13.99;nan;101409.19;5055994;28;20065;-88
2022/09/24 12:14:48;;;;;;;7.13;1.40;;;;;;;13.98;89.76;101401.34;5073890;28;20297;-89
2022/09/24 12:17:33;;;;;;;10.82;1.83;;;;;;;13.97;88.84;101407.53;5072481;28;20028;-88
2022/09/24 12:20:27;;;;;;;7.30;1.40;;;;;;;13.96;88.36;101395.31;5056208;28;20047;-88
2022/09/24 12:23:11;;;;;;;8.70;1.50;;;;;;;13.96;88.50;101411.09;5053242;28;20044;-88
2022/09/24 12:25:45;;;;;;;5.05;1.15;;;;;;;13.96;88.39;101405.84;5073404;28;20020;-88
2022/09/24 12:32:53;;;;;;;8.20;1.60;;;;;;;13.96;88.23;101396.16;5075505;28;20044;-88
2022/09/24 12:34:25;;;;;;;7.15;1.13;;;;;;;13.96;87.85;101406.69;5076398;28;20031;-88
2022/09/24 12:37:09;;;;;;;8.82;1.35;;;;;;;13.97;87.83;101405.78;5079240;28;20059;-88
2022/09/24 12:39:51;;;;;;;9.38;1.88;;;;;;;13.98;86.96;101404.00;5057376;28;20417;-88
2022/09/24 12:42:23;;;;;;;12.02;1.10;;;;;;;13.98;86.81;101411.88;5059164;28;20052;-88
2022/09/24 12:44:57;;;;;;;5.30;1.30;;;;;;;13.97;86.40;101397.88;5035048;28;20052;-88